Home   Weather   Norway   Mandal   Past weeks
Flag for Norway

Past Weather in Mandal, Norway — Yesterday and Last 2 Weeks

Currently: 57 °F. Sunny. (Weather station: Kristiansand / Kjevik, Norway). See more current weather

Past Weather in Mandal — Graph

°F

Mandal Temperature Yesterday

Maximum temperature yesterday: 55 °F (at 1:50 pm)
Minimum temperature yesterday: 34 °F (at 1:50 am)
Average temperature yesterday: 46 °F

High & Low Weather Summary for the Past Weeks

 TemperatureHumidityPressure
High55 °F (Apr 17, 1:50 pm)100% (Apr 4, 1:20 am)30.54 "Hg (Apr 4, 1:20 am)
Low27 °F (Apr 11, 1:50 am)24% (Apr 13, 4:50 pm)29.18 "Hg (Apr 5, 7:50 am)
Average40 °F62%29.94 "Hg
* Reported Apr 3 10:20 am — Apr 18 10:20 am, Mandal. Weather by CustomWeather, © 2021

Note: Actual official high and low records may vary slightly from our data, if they occured in-between our weather recording intervals... More about our weather records

Mandal Weather History for the Previous 24 Hours

Scroll right to see more
 ConditionsComfort  
Time TempWeatherWind HumidityBarometerVisibility
10:20 am
Sun, Apr 18
54 °FSunny.16 mph35%30.36 "Hg10 mi
9:50 am54 °FSunny.13 mph38%30.36 "Hg10 mi
9:20 am52 °FSunny.13 mph41%30.36 "Hg10 mi
8:50 am50 °FSunny.12 mph47%30.36 "Hg10 mi
8:20 am48 °FOvercast.9 mph50%30.36 "HgN/A
7:50 am46 °FMostly cloudy.9 mph53%30.36 "HgN/A
7:20 am45 °FPartly sunny.8 mph61%30.36 "HgN/A
6:50 am43 °FOvercast.6 mph61%30.36 "HgN/A
6:20 am41 °FOvercast.6 mph66%30.36 "HgN/A
5:50 am41 °FPassing clouds.6 mph61%30.36 "HgN/A
4:50 am41 °FQuite cool.6 mph66%30.36 "HgN/A
4:20 am41 °FQuite cool.7 mph66%30.36 "HgN/A
3:50 am43 °FPassing clouds.6 mph61%30.36 "HgN/A
3:20 am43 °FPassing clouds.6 mph61%30.36 "HgN/A
2:50 am43 °FQuite cool.7 mph61%30.36 "HgN/A
2:20 am43 °FQuite cool.6 mph61%30.36 "HgN/A
1:50 am45 °FPassing clouds.3 mph57%30.39 "HgN/A
1:20 am43 °FQuite cool.6 mph66%30.36 "HgN/A
12:50 am45 °FQuite cool.7 mph61%30.39 "HgN/A
11:50 pm
Sat, Apr 17
43 °FPassing clouds.6 mph66%30.39 "HgN/A
11:20 pm46 °FPassing clouds.3 mph57%30.39 "HgN/A
10:50 pm48 °FPassing clouds.3 mph54%30.39 "HgN/A
10:20 pm45 °FPassing clouds.6 mph61%30.36 "HgN/A
9:50 pm48 °FOvercast.3 mph54%30.36 "HgN/A
9:20 pm50 °FOvercast.2 mph54%30.36 "HgN/A
8:50 pm52 °FOvercast.No wind44%30.36 "HgN/A
8:20 pm55 °FPartly sunny.3 mph33%30.36 "HgN/A
7:50 pm55 °FPartly sunny.3 mph33%30.36 "HgN/A
7:20 pm55 °FBroken clouds.6 mph33%30.36 "HgN/A
6:50 pm55 °FBroken clouds.8 mph33%30.36 "HgN/A
6:20 pm55 °FSunny.10 mph33%30.36 "Hg10 mi
5:50 pm55 °FSunny.12 mph33%30.36 "Hg10 mi
5:20 pm54 °FSunny.10 mph33%30.39 "Hg10 mi
4:50 pm55 °FSunny.10 mph28%30.39 "Hg10 mi
4:20 pm55 °FPassing clouds.13 mph31%30.39 "HgN/A
3:50 pm55 °FPassing clouds.12 mph31%30.39 "HgN/A
3:20 pm55 °FSunny.10 mph33%30.39 "Hg10 mi
2:50 pm55 °FPassing clouds.6 mph41%30.42 "HgN/A
2:20 pm54 °FPassing clouds.7 mph51%30.42 "HgN/A
1:50 pm55 °FSunny.3 mph41%30.42 "Hg10 mi
1:20 pm48 °FPartly sunny.9 mph62%30.42 "HgN/A
12:50 pm48 °FBroken clouds.8 mph62%30.45 "HgN/A
12:20 pm46 °FBroken clouds.6 mph62%30.45 "HgN/A
11:50 am46 °FBroken clouds.6 mph66%30.45 "HgN/A
11:20 am46 °FLight rain. Partly sunny.9 mph62%30.45 "HgN/A
Weather by CustomWeather, © 2021

See weather overview